sensor_id;sensor_type;location;lat;lon;timestamp;temperature;humidity
43862;DHT22;29510;52.140;5.034;2022-09-09T00:00:16;15.80;99.90
43862;DHT22;29510;52.140;5.034;2022-09-09T00:20:52;15.70;99.90
43862;DHT22;29510;52.140;5.034;2022-09-09T00:31:16;15.60;99.90
43862;DHT22;29510;52.140;5.034;2022-09-09T00:41:31;15.60;99.90
43862;DHT22;29510;52.140;5.034;2022-09-09T01:01:43;15.40;99.90
43862;DHT22;29510;52.140;5.034;2022-09-09T01:12:16;15.30;99.90
43862;DHT22;29510;52.140;5.034;2022-09-09T01:22:33;15.10;99.90
43862;DHT22;29510;52.140;5.034;2022-09-09T01:32:45;15.10;99.90
43862;DHT22;29510;52.140;5.034;2022-09-09T01:42:47;15.10;99.90
43862;DHT22;29510;52.140;5.034;2022-09-09T01:52:53;15.00;99.90
43862;DHT22;29510;52.140;5.034;2022-09-09T02:03:06;14.90;99.90
43862;DHT22;29510;52.140;5.034;2022-09-09T02:13:14;14.80;99.90
43862;DHT22;29510;52.140;5.034;2022-09-09T02:23:16;14.70;99.90
43862;DHT22;29510;52.140;5.034;2022-09-09T02:33:19;14.80;99.90
43862;DHT22;29510;52.140;5.034;2022-09-09T02:43:20;14.70;99.90
43862;DHT22;29510;52.140;5.034;2022-09-09T02:53:28;14.80;99.90
43862;DHT22;29510;52.140;5.034;2022-09-09T03:03:32;14.70;99.90
43862;DHT22;29510;52.140;5.034;2022-09-09T03:13:33;14.80;99.90
43862;DHT22;29510;52.140;5.034;2022-09-09T03:23:34;14.80;99.90
43862;DHT22;29510;52.140;5.034;2022-09-09T03:33:39;14.70;99.90
43862;DHT22;29510;52.140;5.034;2022-09-09T03:43:41;14.70;99.90
43862;DHT22;29510;52.140;5.034;2022-09-09T03:53:42;14.60;99.90
43862;DHT22;29510;52.140;5.034;2022-09-09T04:03:44;14.70;99.90
43862;DHT22;29510;52.140;5.034;2022-09-09T04:13:45;14.50;99.90
43862;DHT22;29510;52.140;5.034;2022-09-09T04:23:46;14.60;99.90
43862;DHT22;29510;52.140;5.034;2022-09-09T04:33:48;14.60;99.90
43862;DHT22;29510;52.140;5.034;2022-09-09T04:43:49;14.70;99.90
43862;DHT22;29510;52.140;5.034;2022-09-09T04:53:50;14.70;99.90
43862;DHT22;29510;52.140;5.034;2022-09-09T05:03:52;14.60;99.90
43862;DHT22;29510;52.140;5.034;2022-09-09T05:13:54;14.60;99.90
43862;DHT22;29510;52.140;5.034;2022-09-09T05:23:55;14.60;99.90
43862;DHT22;29510;52.140;5.034;2022-09-09T05:33:56;14.60;99.90
43862;DHT22;29510;52.140;5.034;2022-09-09T05:43:57;14.60;99.90
43862;DHT22;29510;52.140;5.034;2022-09-09T05:53:59;14.60;99.90
43862;DHT22;29510;52.140;5.034;2022-09-09T06:04:01;14.80;99.90
43862;DHT22;29510;52.140;5.034;2022-09-09T06:14:02;14.90;99.90
43862;DHT22;29510;52.140;5.034;2022-09-09T06:24:04;15.00;99.90
43862;DHT22;29510;52.140;5.034;2022-09-09T06:34:07;15.30;99.90
43862;DHT22;29510;52.140;5.034;2022-09-09T06:44:08;15.40;99.90
43862;DHT22;29510;52.140;5.034;2022-09-09T06:54:13;15.50;99.90
43862;DHT22;29510;52.140;5.034;2022-09-09T07:04:14;15.80;99.90
43862;DHT22;29510;52.140;5.034;2022-09-09T07:14:15;16.10;99.90
43862;DHT22;29510;52.140;5.034;2022-09-09T07:24:16;16.20;99.90
43862;DHT22;29510;52.140;5.034;2022-09-09T07:34:17;16.30;99.90
43862;DHT22;29510;52.140;5.034;2022-09-09T07:44:21;16.40;99.90
43862;DHT22;29510;52.140;5.034;2022-09-09T07:54:23;16.50;99.90
43862;DHT22;29510;52.140;5.034;2022-09-09T08:04:25;16.50;99.90
43862;DHT22;29510;52.140;5.034;2022-09-09T08:14:26;16.60;99.90
43862;DHT22;29510;52.140;5.034;2022-09-09T08:24:28;16.80;99.90
43862;DHT22;29510;52.140;5.034;2022-09-09T08:34:29;17.00;99.90
43862;DHT22;29510;52.140;5.034;2022-09-09T08:54:36;17.00;99.90
43862;DHT22;29510;52.140;5.034;2022-09-09T09:14:49;17.00;99.90
43862;DHT22;29510;52.140;5.034;2022-09-09T09:35:12;17.00;99.90
43862;DHT22;29510;52.140;5.034;2022-09-09T09:45:20;16.90;99.90
43862;DHT22;29510;52.140;5.034;2022-09-09T09:55:28;16.90;99.90
43862;DHT22;29510;52.140;5.034;2022-09-09T10:05:35;17.10;99.90
43862;DHT22;29510;52.140;5.034;2022-09-09T10:36:34;16.80;99.90
43862;DHT22;29510;52.140;5.034;2022-09-09T10:47:13;17.00;99.90
43862;DHT22;29510;52.140;5.034;2022-09-09T11:07:40;17.30;99.90
43862;DHT22;29510;52.140;5.034;2022-09-09T11:17:48;17.30;99.90
43862;DHT22;29510;52.140;5.034;2022-09-09T11:38:18;17.30;99.90
43862;DHT22;29510;52.140;5.034;2022-09-09T11:48:43;17.30;99.90
43862;DHT22;29510;52.140;5.034;2022-09-09T11:59:19;16.90;99.90
43862;DHT22;29510;52.140;5.034;2022-09-09T12:19:34;17.00;99.90
43862;DHT22;29510;52.140;5.034;2022-09-09T12:40:32;17.40;99.90
43862;DHT22;29510;52.140;5.034;2022-09-09T12:50:38;18.10;99.90
43862;DHT22;29510;52.140;5.034;2022-09-09T13:00:49;17.80;99.90
43862;DHT22;29510;52.140;5.034;2022-09-09T13:11:01;17.60;99.90
43862;DHT22;29510;52.140;5.034;2022-09-09T13:21:04;17.70;99.90
43862;DHT22;29510;52.140;5.034;2022-09-09T13:31:20;17.60;99.90
43862;DHT22;29510;52.140;5.034;2022-09-09T13:41:28;17.90;99.90
43862;DHT22;29510;52.140;5.034;2022-09-09T13:51:36;17.80;99.90
43862;DHT22;29510;52.140;5.034;2022-09-09T14:01:38;17.80;99.90
43862;DHT22;29510;52.140;5.034;2022-09-09T14:11:39;17.70;99.90
43862;DHT22;29510;52.140;5.034;2022-09-09T14:21:41;17.50;99.90
43862;DHT22;29510;52.140;5.034;2022-09-09T14:31:42;17.30;99.90
43862;DHT22;29510;52.140;5.034;2022-09-09T14:41:43;17.70;99.90
43862;DHT22;29510;52.140;5.034;2022-09-09T14:51:44;18.20;99.90
43862;DHT22;29510;52.140;5.034;2022-09-09T15:01:45;18.20;99.90
43862;DHT22;29510;52.140;5.034;2022-09-09T15:11:46;17.50;99.90
43862;DHT22;29510;52.140;5.034;2022-09-09T15:21:47;17.20;99.90
43862;DHT22;29510;52.140;5.034;2022-09-09T15:31:48;17.20;99.90
43862;DHT22;29510;52.140;5.034;2022-09-09T15:41:49;17.40;99.90
43862;DHT22;29510;52.140;5.034;2022-09-09T15:51:55;17.70;99.90
43862;DHT22;29510;52.140;5.034;2022-09-09T16:01:58;17.80;99.90
43862;DHT22;29510;52.140;5.034;2022-09-09T16:12:02;17.80;99.90
43862;DHT22;29510;52.140;5.034;2022-09-09T16:22:06;17.80;99.90
43862;DHT22;29510;52.140;5.034;2022-09-09T16:32:08;17.60;99.90
43862;DHT22;29510;52.140;5.034;2022-09-09T16:42:09;17.50;99.90
43862;DHT22;29510;52.140;5.034;2022-09-09T16:52:11;17.40;99.90
43862;DHT22;29510;52.140;5.034;2022-09-09T17:02:12;17.50;99.90
43862;DHT22;29510;52.140;5.034;2022-09-09T17:12:13;17.50;99.90
43862;DHT22;29510;52.140;5.034;2022-09-09T17:22:14;17.50;99.90
43862;DHT22;29510;52.140;5.034;2022-09-09T17:32:15;17.20;99.90
43862;DHT22;29510;52.140;5.034;2022-09-09T17:42:16;17.00;99.90
43862;DHT22;29510;52.140;5.034;2022-09-09T17:52:18;16.70;99.90
43862;DHT22;29510;52.140;5.034;2022-09-09T18:02:19;16.60;99.90
43862;DHT22;29510;52.140;5.034;2022-09-09T18:12:20;16.60;99.90
43862;DHT22;29510;52.140;5.034;2022-09-09T18:22:21;16.50;99.90
43862;DHT22;29510;52.140;5.034;2022-09-09T18:32:23;16.50;99.90
43862;DHT22;29510;52.140;5.034;2022-09-09T18:42:24;16.50;99.90
43862;DHT22;29510;52.140;5.034;2022-09-09T18:52:26;16.40;99.90
43862;DHT22;29510;52.140;5.034;2022-09-09T19:02:27;16.30;99.90
43862;DHT22;29510;52.140;5.034;2022-09-09T19:12:28;16.20;99.90
43862;DHT22;29510;52.140;5.034;2022-09-09T19:22:30;16.10;99.90
43862;DHT22;29510;52.140;5.034;2022-09-09T19:32:31;16.10;99.90
43862;DHT22;29510;52.140;5.034;2022-09-09T19:42:32;16.10;99.90
43862;DHT22;29510;52.140;5.034;2022-09-09T19:52:33;16.00;99.90
43862;DHT22;29510;52.140;5.034;2022-09-09T20:02:34;16.00;99.90
43862;DHT22;29510;52.140;5.034;2022-09-09T20:12:35;16.00;99.90
43862;DHT22;29510;52.140;5.034;2022-09-09T20:22:36;16.00;99.90
43862;DHT22;29510;52.140;5.034;2022-09-09T20:32:37;16.00;99.90
43862;DHT22;29510;52.140;5.034;2022-09-09T20:42:38;16.00;99.90
43862;DHT22;29510;52.140;5.034;2022-09-09T20:52:39;15.90;99.90
43862;DHT22;29510;52.140;5.034;2022-09-09T21:02:40;16.00;99.90
43862;DHT22;29510;52.140;5.034;2022-09-09T21:12:41;15.90;99.90
43862;DHT22;29510;52.140;5.034;2022-09-09T21:22:42;15.80;99.90
43862;DHT22;29510;52.140;5.034;2022-09-09T21:32:44;15.80;99.90
43862;DHT22;29510;52.140;5.034;2022-09-09T21:42:45;15.80;99.90
43862;DHT22;29510;52.140;5.034;2022-09-09T21:52:47;15.70;99.90
43862;DHT22;29510;52.140;5.034;2022-09-09T22:02:48;15.70;99.90
43862;DHT22;29510;52.140;5.034;2022-09-09T22:12:49;15.70;99.90
43862;DHT22;29510;52.140;5.034;2022-09-09T22:22:50;15.70;99.90
43862;DHT22;29510;52.140;5.034;2022-09-09T22:32:51;15.80;99.90
43862;DHT22;29510;52.140;5.034;2022-09-09T22:42:52;15.80;99.90
43862;DHT22;29510;52.140;5.034;2022-09-09T22:52:53;15.80;99.90
43862;DHT22;29510;52.140;5.034;2022-09-09T23:02:54;15.80;99.90
43862;DHT22;29510;52.140;5.034;2022-09-09T23:12:55;15.80;99.90
43862;DHT22;29510;52.140;5.034;2022-09-09T23:22:58;15.80;99.90
43862;DHT22;29510;52.140;5.034;2022-09-09T23:33:00;15.80;99.90
43862;DHT22;29510;52.140;5.034;2022-09-09T23:43:01;15.70;99.90
43862;DHT22;29510;52.140;5.034;2022-09-09T23:53:03;15.70;99.90
